Time,TemperatureF,DewpointF,PressureIn,WindDirection,WindDirectionDegrees,WindSpeedMPH,WindSpeedGustMPH,Humidity,HourlyPrecipIn,Conditions,Clouds,dailyrainin,SoftwareType,DateUTC
2013-06-20 00:04:00,65.7,60.0,29.88,NE,45,0.0,-999.0,82,-99.99,,,0.00,Acu-Link.com,2013-06-20 04:04:00,
2013-06-20 00:19:00,65.3,59.7,29.89,NE,45,0.0,-999.0,82,-99.99,,,0.00,Acu-Link.com,2013-06-20 04:19:00,
2013-06-20 00:34:00,64.9,59.6,29.89,NE,45,0.0,-999.0,83,-99.99,,,0.00,Acu-Link.com,2013-06-20 04:34:00,
2013-06-20 00:49:00,64.4,59.5,29.90,NE,45,0.0,-999.0,84,-99.99,,,0.00,Acu-Link.com,2013-06-20 04:49:00,
2013-06-20 01:05:00,64.4,59.8,29.90,NE,45,0.0,-999.0,85,-99.99,,,0.00,Acu-Link.com,2013-06-20 05:05:00,
2013-06-20 01:20:00,63.7,59.4,29.91,NE,45,0.0,-999.0,86,-99.99,,,0.00,Acu-Link.com,2013-06-20 05:20:00,
2013-06-20 01:35:00,63.3,59.0,29.91,NE,45,0.0,-999.0,86,-99.99,,,0.00,Acu-Link.com,2013-06-20 05:35:00,
2013-06-20 01:50:00,63.1,59.2,29.90,NE,45,0.0,-999.0,87,-99.99,,,0.00,Acu-Link.com,2013-06-20 05:50:00,
2013-06-20 02:06:00,63.0,59.4,29.90,NE,45,0.0,-999.0,88,-99.99,,,0.00,Acu-Link.com,2013-06-20 06:06:00,
2013-06-20 02:21:00,63.0,59.4,29.90,NE,45,0.0,-999.0,88,-99.99,,,0.00,Acu-Link.com,2013-06-20 06:21:00,
2013-06-20 02:36:00,63.1,59.2,29.90,NE,45,0.0,-999.0,87,-99.99,,,0.00,Acu-Link.com,2013-06-20 06:36:00,
2013-06-20 02:52:00,62.6,59.0,29.90,NE,45,0.0,-999.0,88,-99.99,,,0.00,Acu-Link.com,2013-06-20 06:52:00,
2013-06-20 03:22:00,61.5,58.2,29.90,NE,45,0.0,-999.0,89,-99.99,,,0.00,Acu-Link.com,2013-06-20 07:22:00,
2013-06-20 03:37:00,61.3,58.3,29.90,NE,45,0.0,-999.0,90,-99.99,,,0.00,Acu-Link.com,2013-06-20 07:37:00,
2013-06-20 03:52:00,61.0,58.4,29.90,NE,45,0.0,-999.0,91,-99.99,,,0.00,Acu-Link.com,2013-06-20 07:52:00,
2013-06-20 04:07:00,60.8,58.2,29.90,NE,45,0.0,-999.0,91,-99.99,,,0.00,Acu-Link.com,2013-06-20 08:07:00,
2013-06-20 04:22:00,60.8,58.5,29.91,NE,45,0.0,-999.0,92,-99.99,,,0.00,Acu-Link.com,2013-06-20 08:22:00,
2013-06-20 04:37:00,60.6,58.3,29.91,NE,45,0.0,-999.0,92,-99.99,,,0.00,Acu-Link.com,2013-06-20 08:37:00,
2013-06-20 04:52:00,60.1,58.1,29.91,NE,45,0.0,-999.0,93,-99.99,,,0.00,Acu-Link.com,2013-06-20 08:52:00,
2013-06-20 05:07:00,60.1,58.1,29.92,NE,45,0.0,-999.0,93,-99.99,,,0.00,Acu-Link.com,2013-06-20 09:07:00,
2013-06-20 05:22:00,59.9,58.2,29.93,NE,45,0.0,-999.0,94,-99.99,,,0.00,Acu-Link.com,2013-06-20 09:22:00,
2013-06-20 05:38:00,59.7,58.3,29.93,NE,45,0.0,-999.0,95,-99.99,,,0.00,Acu-Link.com,2013-06-20 09:38:00,
2013-06-20 05:53:00,60.1,58.4,29.93,NE,45,0.0,-999.0,94,-99.99,,,0.00,Acu-Link.com,2013-06-20 09:53:00,
2013-06-20 06:08:00,59.9,58.5,29.94,NE,45,0.0,-999.0,95,-99.99,,,0.00,Acu-Link.com,2013-06-20 10:08:00,
2013-06-20 06:24:00,59.7,58.3,29.94,NE,45,0.0,-999.0,95,-99.99,,,0.00,Acu-Link.com,2013-06-20 10:24:00,
2013-06-20 06:39:00,59.5,58.4,29.94,NE,45,0.0,-999.0,96,-99.99,,,0.00,Acu-Link.com,2013-06-20 10:39:00,
2013-06-20 06:54:00,60.1,59.0,29.95,NE,45,0.0,-999.0,96,-99.99,,,0.00,Acu-Link.com,2013-06-20 10:54:00,
2013-06-20 07:09:00,60.8,59.7,29.95,NE,45,0.0,-999.0,96,-99.99,,,0.00,Acu-Link.com,2013-06-20 11:09:00,
2013-06-20 07:25:00,62.8,61.3,29.95,NE,45,0.0,-999.0,95,-99.99,,,0.00,Acu-Link.com,2013-06-20 11:25:00,
2013-06-20 07:40:00,65.3,61.7,29.96,ENE,67,0.0,-999.0,88,-99.99,,,0.00,Acu-Link.com,2013-06-20 11:40:00,
2013-06-20 07:55:00,66.2,61.6,29.96,NE,45,2.7,-999.0,85,-99.99,,,0.00,Acu-Link.com,2013-06-20 11:55:00,
2013-06-20 08:10:00,67.1,62.1,29.96,ESE,112,0.0,-999.0,84,-99.99,,,0.00,Acu-Link.com,2013-06-20 12:10:00,
2013-06-20 08:26:00,68.0,63.0,29.97,ESE,112,1.1,-999.0,84,-99.99,,,0.00,Acu-Link.com,2013-06-20 12:26:00,
2013-06-20 08:41:00,69.3,64.3,29.97,NNE,22,3.2,-999.0,84,-99.99,,,0.00,Acu-Link.com,2013-06-20 12:41:00,
2013-06-20 08:56:00,70.5,65.1,29.97,East,90,3.7,-999.0,83,-99.99,,,0.00,Acu-Link.com,2013-06-20 12:56:00,
2013-06-20 09:11:00,71.6,65.8,29.97,SSE,157,0.0,-999.0,82,-99.99,,,0.00,Acu-Link.com,2013-06-20 13:11:00,
2013-06-20 09:27:00,72.7,65.4,29.98,South,180,2.7,-999.0,78,-99.99,,,0.00,Acu-Link.com,2013-06-20 13:27:00,
2013-06-20 09:42:00,73.0,65.0,29.97,ESE,112,3.7,-999.0,76,-99.99,,,0.00,Acu-Link.com,2013-06-20 13:42:00,
2013-06-20 09:57:00,74.3,65.5,29.98,WSW,247,3.2,-999.0,74,-99.99,,,0.00,Acu-Link.com,2013-06-20 13:57:00,
2013-06-20 10:13:00,75.2,65.9,29.98,NNE,22,3.2,-999.0,73,-99.99,,,0.00,Acu-Link.com,2013-06-20 14:13:00,
2013-06-20 10:28:00,75.6,65.1,29.98,ESE,112,3.7,-999.0,70,-99.99,,,0.00,Acu-Link.com,2013-06-20 14:28:00,
2013-06-20 10:43:00,76.3,65.4,29.98,South,180,1.1,-999.0,69,-99.99,,,0.00,Acu-Link.com,2013-06-20 14:43:00,
2013-06-20 10:59:00,77.0,64.3,29.98,North,0,4.7,-999.0,65,-99.99,,,0.00,Acu-Link.com,2013-06-20 14:59:00,
2013-06-20 11:14:00,78.3,64.6,29.99,SSW,202,1.1,-999.0,63,-99.99,,,0.00,Acu-Link.com,2013-06-20 15:14:00,
2013-06-20 11:29:00,78.8,66.0,29.99,NNE,22,3.2,-999.0,65,-99.99,,,0.00,Acu-Link.com,2013-06-20 15:29:00,
2013-06-20 11:45:00,77.5,64.8,29.98,South,180,1.7,-999.0,65,-99.99,,,0.00,Acu-Link.com,2013-06-20 15:45:00,
2013-06-20 12:00:00,77.7,65.0,29.98,East,90,1.7,-999.0,65,-99.99,,,0.00,Acu-Link.com,2013-06-20 16:00:00,
2013-06-20 12:15:00,78.3,66.4,29.98,SSE,157,4.7,-999.0,67,-99.99,,,0.00,Acu-Link.com,2013-06-20 16:15:00,
2013-06-20 12:30:00,80.1,68.6,29.98,East,90,2.7,-999.0,68,-99.99,,,0.00,Acu-Link.com,2013-06-20 16:30:00,
2013-06-20 12:45:00,80.4,66.2,29.98,SSW,202,0.0,-999.0,62,-99.99,,,0.00,Acu-Link.com,2013-06-20 16:45:00,
2013-06-20 13:01:00,80.1,65.9,29.98,NNE,22,3.7,-999.0,62,-99.99,,,0.00,Acu-Link.com,2013-06-20 17:01:00,
2013-06-20 13:16:00,79.0,63.9,29.98,WSW,247,1.1,-999.0,60,-99.99,,,0.00,Acu-Link.com,2013-06-20 17:16:00,
2013-06-20 13:31:00,81.5,65.3,29.98,South,180,3.7,-999.0,58,-99.99,,,0.00,Acu-Link.com,2013-06-20 17:31:00,
2013-06-20 13:46:00,81.5,65.3,29.97,SSW,202,2.7,-999.0,58,-99.99,,,0.00,Acu-Link.com,2013-06-20 17:46:00,
2013-06-20 14:01:00,81.9,64.1,29.97,NNE,22,2.7,-999.0,55,-99.99,,,0.00,Acu-Link.com,2013-06-20 18:01:00,
2013-06-20 14:16:00,82.8,65.5,29.97,South,180,5.3,-999.0,56,-99.99,,,0.00,Acu-Link.com,2013-06-20 18:16:00,
2013-06-20 14:32:00,83.7,65.8,29.96,East,90,5.3,-999.0,55,-99.99,,,0.00,Acu-Link.com,2013-06-20 18:32:00,
2013-06-20 14:47:00,81.1,64.4,29.95,SE,135,2.7,-999.0,57,-99.99,,,0.00,Acu-Link.com,2013-06-20 18:47:00,
2013-06-20 15:02:00,83.3,67.0,29.96,ENE,67,3.2,-999.0,58,-99.99,,,0.00,Acu-Link.com,2013-06-20 19:02:00,
2013-06-20 15:17:00,81.0,63.3,29.96,WSW,247,2.7,-999.0,55,-99.99,,,0.00,Acu-Link.com,2013-06-20 19:17:00,
2013-06-20 15:33:00,82.4,65.1,29.96,East,90,4.7,-999.0,56,-99.99,,,0.00,Acu-Link.com,2013-06-20 19:33:00,
2013-06-20 15:48:00,81.9,64.6,29.95,West,270,1.7,-999.0,56,-99.99,,,0.00,Acu-Link.com,2013-06-20 19:48:00,
2013-06-20 16:03:00,83.5,65.1,29.96,SSE,157,2.7,-999.0,54,-99.99,,,0.00,Acu-Link.com,2013-06-20 20:03:00,
2013-06-20 16:19:00,82.9,66.1,29.95,ENE,67,1.7,-999.0,57,-99.99,,,0.00,Acu-Link.com,2013-06-20 20:19:00,
2013-06-20 16:34:00,83.1,64.7,29.95,NE,45,1.7,-999.0,54,-99.99,,,0.00,Acu-Link.com,2013-06-20 20:34:00,
2013-06-20 16:49:00,83.7,64.7,29.95,NE,45,3.2,-999.0,53,-99.99,,,0.00,Acu-Link.com,2013-06-20 20:49:00,
2013-06-20 17:04:00,81.9,64.1,29.95,NE,45,3.7,-999.0,55,-99.99,,,0.00,Acu-Link.com,2013-06-20 21:04:00,
2013-06-20 17:20:00,83.1,65.2,29.95,NNE,22,3.7,-999.0,55,-99.99,,,0.00,Acu-Link.com,2013-06-20 21:20:00,
2013-06-20 17:35:00,83.3,63.8,29.94,NE,45,3.2,-999.0,52,-99.99,,,0.00,Acu-Link.com,2013-06-20 21:35:00,
2013-06-20 17:50:00,83.7,64.2,29.94,NNE,22,2.7,-999.0,52,-99.99,,,0.00,Acu-Link.com,2013-06-20 21:50:00,
2013-06-20 18:05:00,83.1,63.6,29.93,WSW,247,2.2,-999.0,52,-99.99,,,0.00,Acu-Link.com,2013-06-20 22:05:00,
2013-06-20 18:20:00,83.3,64.9,29.93,NNE,22,3.2,-999.0,54,-99.99,,,0.00,Acu-Link.com,2013-06-20 22:20:00,
2013-06-20 18:36:00,83.3,62.7,29.93,NNW,337,2.2,-999.0,50,-99.99,,,0.00,Acu-Link.com,2013-06-20 22:36:00,
2013-06-20 18:51:00,83.3,64.4,29.93,NE,45,3.2,-999.0,53,-99.99,,,0.00,Acu-Link.com,2013-06-20 22:51:00,
2013-06-20 19:06:00,82.4,63.5,29.93,North,0,2.7,-999.0,53,-99.99,,,0.00,Acu-Link.com,2013-06-20 23:06:00,
2013-06-20 19:21:00,82.0,62.6,29.93,NE,45,2.7,-999.0,52,-99.99,,,0.00,Acu-Link.com,2013-06-20 23:21:00,
2013-06-20 19:36:00,82.2,63.3,29.93,NNE,22,2.7,-999.0,53,-99.99,,,0.00,Acu-Link.com,2013-06-20 23:36:00,
2013-06-20 19:52:00,81.3,63.0,29.93,NE,45,1.7,-999.0,54,-99.99,,,0.00,Acu-Link.com,2013-06-20 23:52:00,
2013-06-20 20:07:00,81.5,64.3,29.94,ENE,67,0.0,-999.0,56,-99.99,,,0.00,Acu-Link.com,2013-06-21 00:07:00,
2013-06-20 20:22:00,79.3,63.2,29.94,NE,45,1.7,-999.0,58,-99.99,,,0.00,Acu-Link.com,2013-06-21 00:22:00,
2013-06-20 20:37:00,77.9,63.3,29.95,ENE,67,0.0,-999.0,61,-99.99,,,0.00,Acu-Link.com,2013-06-21 00:37:00,
2013-06-20 20:53:00,76.6,62.6,29.95,East,90,1.1,-999.0,62,-99.99,,,0.00,Acu-Link.com,2013-06-21 00:53:00,
2013-06-20 21:08:00,75.7,63.1,29.94,NNE,22,1.1,-999.0,65,-99.99,,,0.00,Acu-Link.com,2013-06-21 01:08:00,
2013-06-20 21:23:00,75.0,62.9,29.95,ENE,67,0.0,-999.0,66,-99.99,,,0.00,Acu-Link.com,2013-06-21 01:23:00,
2013-06-20 21:38:00,73.6,62.8,29.95,SSE,157,0.0,-999.0,69,-99.99,,,0.00,Acu-Link.com,2013-06-21 01:38:00,
2013-06-20 21:54:00,72.9,62.5,29.96,SSE,157,0.0,-999.0,70,-99.99,,,0.00,Acu-Link.com,2013-06-21 01:54:00,
2013-06-20 22:09:00,72.1,62.2,29.96,SSE,157,0.0,-999.0,71,-99.99,,,0.00,Acu-Link.com,2013-06-21 02:09:00,
2013-06-20 22:24:00,71.4,61.9,29.96,SSE,157,0.0,-999.0,72,-99.99,,,0.00,Acu-Link.com,2013-06-21 02:24:00,
2013-06-20 22:40:00,70.9,61.4,29.96,SSE,157,0.0,-999.0,72,-99.99,,,0.00,Acu-Link.com,2013-06-21 02:40:00,
2013-06-20 22:55:00,70.3,62.0,29.96,SSE,157,0.0,-999.0,75,-99.99,,,0.00,Acu-Link.com,2013-06-21 02:55:00,
2013-06-20 23:10:00,69.8,61.9,29.96,SSE,157,0.0,-999.0,76,-99.99,,,0.00,Acu-Link.com,2013-06-21 03:10:00,
2013-06-20 23:26:00,69.3,62.1,29.96,SSE,157,0.0,-999.0,78,-99.99,,,0.00,Acu-Link.com,2013-06-21 03:26:00,
2013-06-20 23:41:00,69.4,61.9,29.95,SSE,157,0.0,-999.0,77,-99.99,,,0.00,Acu-Link.com,2013-06-21 03:41:00,
2013-06-20 23:56:00,70.0,61.3,29.94,ESE,112,0.0,-999.0,74,-99.99,,,0.00,Acu-Link.com,2013-06-21 03:56:00,